sensor_id;sensor_type;location;lat;lon;timestamp;P1;durP1;ratioP1;P2;durP2;ratioP2
66830;SDS011;53739;44.224;22.528;2023-07-16T06:17:02;12.43;;;10.30;;
66830;SDS011;53739;44.224;22.528;2023-07-16T06:26:14;15.48;;;10.18;;
66830;SDS011;53739;44.224;22.528;2023-07-16T06:34:54;12.52;;;9.68;;
66830;SDS011;53739;44.224;22.528;2023-07-16T06:37:23;14.60;;;9.15;;
66830;SDS011;53739;44.224;22.528;2023-07-16T06:49:16;12.45;;;8.68;;
66830;SDS011;53739;44.224;22.528;2023-07-16T06:57:52;12.80;;;9.93;;
66830;SDS011;53739;44.224;22.528;2023-07-16T07:00:24;10.35;;;8.93;;
66830;SDS011;53739;44.224;22.528;2023-07-16T07:02:54;14.98;;;9.25;;
66830;SDS011;53739;44.224;22.528;2023-07-16T07:05:43;14.93;;;9.95;;
66830;SDS011;53739;44.224;22.528;2023-07-16T07:21:20;12.18;;;10.15;;
66830;SDS011;53739;44.224;22.528;2023-07-16T07:23:59;15.55;;;9.90;;
66830;SDS011;53739;44.224;22.528;2023-07-16T07:30:21;20.63;;;10.38;;
66830;SDS011;53739;44.224;22.528;2023-07-16T07:38:48;12.73;;;10.55;;
66830;SDS011;53739;44.224;22.528;2023-07-16T07:41:23;11.80;;;9.07;;
66830;SDS011;53739;44.224;22.528;2023-07-16T07:47:06;15.95;;;10.40;;
66830;SDS011;53739;44.224;22.528;2023-07-16T08:05:33;15.13;;;9.88;;
66830;SDS011;53739;44.224;22.528;2023-07-16T08:08:06;14.10;;;10.13;;
66830;SDS011;53739;44.224;22.528;2023-07-16T09:12:43;9.45;;;8.05;;
66830;SDS011;53739;44.224;22.528;2023-07-16T09:36:26;14.00;;;9.93;;
66830;SDS011;53739;44.224;22.528;2023-07-16T09:39:20;14.95;;;9.45;;
66830;SDS011;53739;44.224;22.528;2023-07-16T09:42:15;15.27;;;9.68;;
66830;SDS011;53739;44.224;22.528;2023-07-16T09:45:04;13.90;;;9.90;;
66830;SDS011;53739;44.224;22.528;2023-07-16T09:47:38;10.15;;;8.90;;
66830;SDS011;53739;44.224;22.528;2023-07-16T09:50:05;17.63;;;10.13;;
66830;SDS011;53739;44.224;22.528;2023-07-16T09:52:32;11.65;;;8.70;;
66830;SDS011;53739;44.224;22.528;2023-07-16T09:55:00;16.40;;;9.45;;
66830;SDS011;53739;44.224;22.528;2023-07-16T09:57:32;17.13;;;10.43;;
66830;SDS011;53739;44.224;22.528;2023-07-16T10:00:00;11.82;;;8.80;;
66830;SDS011;53739;44.224;22.528;2023-07-16T10:02:30;12.05;;;8.40;;
66830;SDS011;53739;44.224;22.528;2023-07-16T10:04:56;14.93;;;8.88;;
66830;SDS011;53739;44.224;22.528;2023-07-16T10:07:23;10.13;;;8.50;;
66830;SDS011;53739;44.224;22.528;2023-07-16T10:09:54;11.57;;;8.77;;
66830;SDS011;53739;44.224;22.528;2023-07-16T10:12:25;12.82;;;9.38;;
66830;SDS011;53739;44.224;22.528;2023-07-16T10:14:52;11.30;;;8.30;;
66830;SDS011;53739;44.224;22.528;2023-07-16T10:17:22;12.80;;;9.32;;
66830;SDS011;53739;44.224;22.528;2023-07-16T10:19:55;13.95;;;8.70;;
66830;SDS011;53739;44.224;22.528;2023-07-16T10:22:32;15.68;;;8.13;;
66830;SDS011;53739;44.224;22.528;2023-07-16T10:25:00;15.93;;;8.57;;
66830;SDS011;53739;44.224;22.528;2023-07-16T10:27:27;11.60;;;8.23;;
66830;SDS011;53739;44.224;22.528;2023-07-16T10:30:00;14.13;;;8.77;;
66830;SDS011;53739;44.224;22.528;2023-07-16T10:32:33;12.45;;;9.00;;
66830;SDS011;53739;44.224;22.528;2023-07-16T10:34:59;10.13;;;8.43;;
66830;SDS011;53739;44.224;22.528;2023-07-16T10:37:25;11.15;;;8.20;;
66830;SDS011;53739;44.224;22.528;2023-07-16T10:39:52;12.70;;;8.68;;
66830;SDS011;53739;44.224;22.528;2023-07-16T10:42:20;13.65;;;9.00;;
66830;SDS011;53739;44.224;22.528;2023-07-16T10:44:49;11.45;;;9.07;;
66830;SDS011;53739;44.224;22.528;2023-07-16T10:47:25;15.20;;;8.75;;
66830;SDS011;53739;44.224;22.528;2023-07-16T10:49:52;9.98;;;8.15;;
66830;SDS011;53739;44.224;22.528;2023-07-16T10:52:19;10.82;;;8.00;;
66830;SDS011;53739;44.224;22.528;2023-07-16T10:54:46;11.13;;;8.27;;
66830;SDS011;53739;44.224;22.528;2023-07-16T10:57:13;14.50;;;8.32;;
66830;SDS011;53739;44.224;22.528;2023-07-16T10:59:41;9.88;;;7.53;;
66830;SDS011;53739;44.224;22.528;2023-07-16T11:02:12;11.75;;;7.93;;
66830;SDS011;53739;44.224;22.528;2023-07-16T11:04:39;14.07;;;7.78;;
66830;SDS011;53739;44.224;22.528;2023-07-16T11:07:10;12.18;;;8.05;;
66830;SDS011;53739;44.224;22.528;2023-07-16T11:09:43;10.95;;;7.88;;
66830;SDS011;53739;44.224;22.528;2023-07-16T11:12:13;14.60;;;8.60;;
66830;SDS011;53739;44.224;22.528;2023-07-16T11:14:42;14.73;;;8.40;;
66830;SDS011;53739;44.224;22.528;2023-07-16T11:17:09;14.27;;;8.18;;
66830;SDS011;53739;44.224;22.528;2023-07-16T11:19:36;11.90;;;7.38;;
66830;SDS011;53739;44.224;22.528;2023-07-16T11:22:03;11.32;;;8.00;;
66830;SDS011;53739;44.224;22.528;2023-07-16T11:30:49;15.80;;;7.28;;
66830;SDS011;53739;44.224;22.528;2023-07-16T11:33:15;13.75;;;7.35;;
66830;SDS011;53739;44.224;22.528;2023-07-16T11:35:42;11.55;;;7.80;;
66830;SDS011;53739;44.224;22.528;2023-07-16T11:38:08;15.48;;;8.52;;
66830;SDS011;53739;44.224;22.528;2023-07-16T11:40:35;16.30;;;7.82;;
66830;SDS011;53739;44.224;22.528;2023-07-16T11:43:12;11.30;;;7.18;;
66830;SDS011;53739;44.224;22.528;2023-07-16T11:45:40;8.80;;;7.13;;
66830;SDS011;53739;44.224;22.528;2023-07-16T11:48:06;11.60;;;6.97;;
66830;SDS011;53739;44.224;22.528;2023-07-16T11:50:33;9.80;;;7.68;;
66830;SDS011;53739;44.224;22.528;2023-07-16T11:53:00;9.95;;;7.35;;
66830;SDS011;53739;44.224;22.528;2023-07-16T11:55:29;12.35;;;7.38;;
66830;SDS011;53739;44.224;22.528;2023-07-16T11:57:58;8.63;;;6.90;;
66830;SDS011;53739;44.224;22.528;2023-07-16T12:00:24;8.73;;;6.63;;
66830;SDS011;53739;44.224;22.528;2023-07-16T12:02:51;9.35;;;6.35;;
66830;SDS011;53739;44.224;22.528;2023-07-16T12:05:21;14.52;;;7.30;;
66830;SDS011;53739;44.224;22.528;2023-07-16T12:10:15;11.75;;;6.47;;
66830;SDS011;53739;44.224;22.528;2023-07-16T12:12:41;9.43;;;6.72;;
66830;SDS011;53739;44.224;22.528;2023-07-16T12:15:08;11.73;;;6.63;;
66830;SDS011;53739;44.224;22.528;2023-07-16T12:17:34;10.45;;;7.20;;
66830;SDS011;53739;44.224;22.528;2023-07-16T12:20:01;10.98;;;7.60;;
66830;SDS011;53739;44.224;22.528;2023-07-16T12:22:29;9.27;;;6.80;;
66830;SDS011;53739;44.224;22.528;2023-07-16T12:24:55;10.18;;;6.82;;
66830;SDS011;53739;44.224;22.528;2023-07-16T12:27:21;18.70;;;7.13;;
66830;SDS011;53739;44.224;22.528;2023-07-16T12:29:51;7.97;;;6.60;;
66830;SDS011;53739;44.224;22.528;2023-07-16T12:32:17;9.32;;;6.35;;
66830;SDS011;53739;44.224;22.528;2023-07-16T12:34:45;10.02;;;7.53;;
66830;SDS011;53739;44.224;22.528;2023-07-16T12:37:11;11.32;;;7.18;;
66830;SDS011;53739;44.224;22.528;2023-07-16T12:39:37;10.55;;;7.72;;
66830;SDS011;53739;44.224;22.528;2023-07-16T12:42:03;12.38;;;7.35;;
66830;SDS011;53739;44.224;22.528;2023-07-16T12:44:30;15.75;;;7.43;;
66830;SDS011;53739;44.224;22.528;2023-07-16T12:46:56;11.43;;;7.90;;
66830;SDS011;53739;44.224;22.528;2023-07-16T12:49:22;12.40;;;7.40;;
66830;SDS011;53739;44.224;22.528;2023-07-16T12:51:48;13.05;;;7.10;;
66830;SDS011;53739;44.224;22.528;2023-07-16T12:54:15;10.38;;;6.80;;
66830;SDS011;53739;44.224;22.528;2023-07-16T12:56:41;12.70;;;7.18;;
66830;SDS011;53739;44.224;22.528;2023-07-16T12:59:07;8.23;;;7.35;;
66830;SDS011;53739;44.224;22.528;2023-07-16T13:01:33;12.27;;;7.60;;
66830;SDS011;53739;44.224;22.528;2023-07-16T13:04:03;8.73;;;6.75;;
66830;SDS011;53739;44.224;22.528;2023-07-16T13:06:29;10.63;;;7.53;;
66830;SDS011;53739;44.224;22.528;2023-07-16T13:08:55;11.02;;;7.07;;
66830;SDS011;53739;44.224;22.528;2023-07-16T13:11:21;14.18;;;7.38;;
66830;SDS011;53739;44.224;22.528;2023-07-16T13:13:48;9.93;;;8.13;;
66830;SDS011;53739;44.224;22.528;2023-07-16T13:16:14;10.57;;;6.72;;
66830;SDS011;53739;44.224;22.528;2023-07-16T13:18:40;11.70;;;7.35;;
66830;SDS011;53739;44.224;22.528;2023-07-16T13:21:06;9.77;;;7.13;;
66830;SDS011;53739;44.224;22.528;2023-07-16T13:23:32;8.48;;;7.22;;
66830;SDS011;53739;44.224;22.528;2023-07-16T13:25:58;12.63;;;7.55;;
66830;SDS011;53739;44.224;22.528;2023-07-16T13:28:24;15.50;;;6.57;;
66830;SDS011;53739;44.224;22.528;2023-07-16T13:30:50;9.27;;;7.13;;
66830;SDS011;53739;44.224;22.528;2023-07-16T13:33:17;11.88;;;7.68;;
66830;SDS011;53739;44.224;22.528;2023-07-16T13:35:44;12.43;;;8.25;;
66830;SDS011;53739;44.224;22.528;2023-07-16T13:38:10;9.82;;;7.22;;
66830;SDS011;53739;44.224;22.528;2023-07-16T13:40:36;10.98;;;7.43;;
66830;SDS011;53739;44.224;22.528;2023-07-16T13:43:02;9.55;;;7.45;;
66830;SDS011;53739;44.224;22.528;2023-07-16T13:45:29;9.88;;;6.90;;
66830;SDS011;53739;44.224;22.528;2023-07-16T13:47:55;13.35;;;7.95;;
66830;SDS011;53739;44.224;22.528;2023-07-16T13:50:21;11.32;;;8.10;;
66830;SDS011;53739;44.224;22.528;2023-07-16T13:52:48;8.93;;;7.78;;
66830;SDS011;53739;44.224;22.528;2023-07-16T13:55:14;10.93;;;7.72;;
66830;SDS011;53739;44.224;22.528;2023-07-16T13:57:40;9.35;;;8.35;;
66830;SDS011;53739;44.224;22.528;2023-07-16T14:00:08;16.10;;;8.45;;
66830;SDS011;53739;44.224;22.528;2023-07-16T14:02:37;17.83;;;8.20;;
66830;SDS011;53739;44.224;22.528;2023-07-16T14:05:03;18.30;;;8.50;;
66830;SDS011;53739;44.224;22.528;2023-07-16T14:07:29;12.73;;;9.00;;
66830;SDS011;53739;44.224;22.528;2023-07-16T14:09:59;14.20;;;8.05;;
66830;SDS011;53739;44.224;22.528;2023-07-16T14:12:25;16.15;;;7.75;;
66830;SDS011;53739;44.224;22.528;2023-07-16T14:14:51;11.30;;;7.65;;
66830;SDS011;53739;44.224;22.528;2023-07-16T14:17:17;11.02;;;7.80;;
66830;SDS011;53739;44.224;22.528;2023-07-16T14:19:44;11.90;;;8.70;;
66830;SDS011;53739;44.224;22.528;2023-07-16T14:22:10;12.80;;;8.48;;
66830;SDS011;53739;44.224;22.528;2023-07-16T14:24:38;12.90;;;8.82;;
66830;SDS011;53739;44.224;22.528;2023-07-16T14:27:06;11.50;;;7.82;;
66830;SDS011;53739;44.224;22.528;2023-07-16T14:29:32;9.63;;;7.45;;
66830;SDS011;53739;44.224;22.528;2023-07-16T14:31:58;12.32;;;8.23;;
66830;SDS011;53739;44.224;22.528;2023-07-16T14:34:27;10.90;;;8.60;;
66830;SDS011;53739;44.224;22.528;2023-07-16T14:36:54;11.32;;;8.50;;
66830;SDS011;53739;44.224;22.528;2023-07-16T14:39:20;9.77;;;7.85;;
66830;SDS011;53739;44.224;22.528;2023-07-16T14:41:46;13.32;;;8.57;;
66830;SDS011;53739;44.224;22.528;2023-07-16T14:44:12;13.55;;;9.05;;
66830;SDS011;53739;44.224;22.528;2023-07-16T14:46:39;11.60;;;7.68;;
66830;SDS011;53739;44.224;22.528;2023-07-16T14:49:05;14.18;;;8.23;;
66830;SDS011;53739;44.224;22.528;2023-07-16T14:51:31;14.70;;;8.55;;
66830;SDS011;53739;44.224;22.528;2023-07-16T14:54:04;11.60;;;8.60;;
66830;SDS011;53739;44.224;22.528;2023-07-16T14:56:30;10.57;;;7.97;;
66830;SDS011;53739;44.224;22.528;2023-07-16T14:58:57;14.52;;;8.70;;
66830;SDS011;53739;44.224;22.528;2023-07-16T15:01:23;11.20;;;8.45;;
66830;SDS011;53739;44.224;22.528;2023-07-16T15:03:49;13.18;;;8.55;;
66830;SDS011;53739;44.224;22.528;2023-07-16T15:06:15;12.70;;;8.15;;
66830;SDS011;53739;44.224;22.528;2023-07-16T15:08:41;12.00;;;8.45;;
66830;SDS011;53739;44.224;22.528;2023-07-16T15:11:08;14.57;;;9.18;;
66830;SDS011;53739;44.224;22.528;2023-07-16T15:13:34;11.65;;;8.50;;
66830;SDS011;53739;44.224;22.528;2023-07-16T15:16:00;12.38;;;8.93;;
66830;SDS011;53739;44.224;22.528;2023-07-16T15:18:28;16.35;;;9.07;;
66830;SDS011;53739;44.224;22.528;2023-07-16T15:20:58;13.82;;;8.63;;
66830;SDS011;53739;44.224;22.528;2023-07-16T15:23:25;12.57;;;8.18;;
66830;SDS011;53739;44.224;22.528;2023-07-16T15:25:52;12.63;;;8.80;;
66830;SDS011;53739;44.224;22.528;2023-07-16T15:28:18;14.60;;;9.20;;
66830;SDS011;53739;44.224;22.528;2023-07-16T15:30:44;10.88;;;8.40;;
66830;SDS011;53739;44.224;22.528;2023-07-16T15:33:11;13.13;;;9.70;;
66830;SDS011;53739;44.224;22.528;2023-07-16T15:35:37;17.52;;;8.73;;
66830;SDS011;53739;44.224;22.528;2023-07-16T15:38:03;16.80;;;8.82;;
66830;SDS011;53739;44.224;22.528;2023-07-16T15:40:31;18.77;;;9.18;;
66830;SDS011;53739;44.224;22.528;2023-07-16T15:42:58;14.70;;;8.75;;
66830;SDS011;53739;44.224;22.528;2023-07-16T15:45:24;12.00;;;8.82;;
66830;SDS011;53739;44.224;22.528;2023-07-16T15:47:50;14.05;;;9.05;;
66830;SDS011;53739;44.224;22.528;2023-07-16T15:50:25;14.30;;;8.83;;
66830;SDS011;53739;44.224;22.528;2023-07-16T15:52:51;12.77;;;9.50;;
66830;SDS011;53739;44.224;22.528;2023-07-16T15:55:17;15.18;;;9.18;;
66830;SDS011;53739;44.224;22.528;2023-07-16T15:57:43;13.98;;;8.63;;
66830;SDS011;53739;44.224;22.528;2023-07-16T16:00:10;13.00;;;9.32;;
66830;SDS011;53739;44.224;22.528;2023-07-16T16:02:46;17.27;;;9.65;;
66830;SDS011;53739;44.224;22.528;2023-07-16T16:05:13;14.40;;;9.60;;
66830;SDS011;53739;44.224;22.528;2023-07-16T16:07:42;16.58;;;9.77;;
66830;SDS011;53739;44.224;22.528;2023-07-16T16:10:11;11.90;;;8.83;;
66830;SDS011;53739;44.224;22.528;2023-07-16T16:12:37;16.75;;;9.35;;
66830;SDS011;53739;44.224;22.528;2023-07-16T16:15:04;12.35;;;9.18;;
66830;SDS011;53739;44.224;22.528;2023-07-16T16:17:30;13.73;;;9.15;;
66830;SDS011;53739;44.224;22.528;2023-07-16T16:19:56;16.52;;;10.10;;
66830;SDS011;53739;44.224;22.528;2023-07-16T16:22:23;15.73;;;10.23;;
66830;SDS011;53739;44.224;22.528;2023-07-16T16:24:49;14.85;;;9.38;;
66830;SDS011;53739;44.224;22.528;2023-07-16T16:27:15;17.92;;;9.77;;
66830;SDS011;53739;44.224;22.528;2023-07-16T16:29:41;13.00;;;9.02;;
66830;SDS011;53739;44.224;22.528;2023-07-16T16:32:07;16.02;;;9.63;;
66830;SDS011;53739;44.224;22.528;2023-07-16T16:34:35;18.50;;;8.75;;
66830;SDS011;53739;44.224;22.528;2023-07-16T16:37:02;12.98;;;9.82;;
66830;SDS011;53739;44.224;22.528;2023-07-16T16:39:28;14.77;;;10.35;;
66830;SDS011;53739;44.224;22.528;2023-07-16T16:41:54;13.63;;;9.65;;
66830;SDS011;53739;44.224;22.528;2023-07-16T16:44:20;12.63;;;9.27;;
66830;SDS011;53739;44.224;22.528;2023-07-16T16:46:46;11.48;;;9.70;;
66830;SDS011;53739;44.224;22.528;2023-07-16T16:49:13;18.00;;;10.00;;
66830;SDS011;53739;44.224;22.528;2023-07-16T16:51:39;18.30;;;9.77;;
66830;SDS011;53739;44.224;22.528;2023-07-16T16:54:05;13.30;;;10.63;;
66830;SDS011;53739;44.224;22.528;2023-07-16T16:56:32;11.43;;;9.02;;
66830;SDS011;53739;44.224;22.528;2023-07-16T16:58:58;19.50;;;10.48;;
66830;SDS011;53739;44.224;22.528;2023-07-16T17:01:24;15.85;;;9.98;;
66830;SDS011;53739;44.224;22.528;2023-07-16T17:03:51;14.00;;;10.05;;
66830;SDS011;53739;44.224;22.528;2023-07-16T17:06:18;16.45;;;10.35;;
66830;SDS011;53739;44.224;22.528;2023-07-16T17:08:44;15.70;;;10.02;;
66830;SDS011;53739;44.224;22.528;2023-07-16T17:11:10;12.85;;;10.95;;
66830;SDS011;53739;44.224;22.528;2023-07-16T17:13:38;16.67;;;10.43;;
66830;SDS011;53739;44.224;22.528;2023-07-16T17:16:04;12.93;;;10.38;;
66830;SDS011;53739;44.224;22.528;2023-07-16T17:18:30;17.88;;;11.38;;
66830;SDS011;53739;44.224;22.528;2023-07-16T17:20:57;25.95;;;10.85;;
66830;SDS011;53739;44.224;22.528;2023-07-16T17:23:23;16.08;;;11.05;;
66830;SDS011;53739;44.224;22.528;2023-07-16T17:25:50;16.55;;;10.27;;
66830;SDS011;53739;44.224;22.528;2023-07-16T17:28:16;14.45;;;9.85;;
66830;SDS011;53739;44.224;22.528;2023-07-16T17:30:42;14.70;;;10.80;;
66830;SDS011;53739;44.224;22.528;2023-07-16T17:33:08;20.17;;;12.10;;
66830;SDS011;53739;44.224;22.528;2023-07-16T17:35:35;35.50;;;22.90;;
66830;SDS011;53739;44.224;22.528;2023-07-16T17:38:01;42.35;;;27.98;;
66830;SDS011;53739;44.224;22.528;2023-07-16T17:40:28;44.92;;;28.10;;
66830;SDS011;53739;44.224;22.528;2023-07-16T17:42:54;37.13;;;25.25;;
66830;SDS011;53739;44.224;22.528;2023-07-16T17:45:21;41.75;;;26.05;;
66830;SDS011;53739;44.224;22.528;2023-07-16T17:47:48;43.78;;;27.70;;
66830;SDS011;53739;44.224;22.528;2023-07-16T17:50:14;52.00;;;30.20;;
66830;SDS011;53739;44.224;22.528;2023-07-16T17:52:41;53.00;;;31.02;;
66830;SDS011;53739;44.224;22.528;2023-07-16T17:55:07;37.83;;;27.17;;
66830;SDS011;53739;44.224;22.528;2023-07-16T17:57:35;35.03;;;22.33;;
66830;SDS011;53739;44.224;22.528;2023-07-16T18:00:01;31.70;;;20.75;;
66830;SDS011;53739;44.224;22.528;2023-07-16T18:02:31;28.88;;;17.58;;
66830;SDS011;53739;44.224;22.528;2023-07-16T18:04:57;26.67;;;18.02;;
66830;SDS011;53739;44.224;22.528;2023-07-16T18:07:24;23.98;;;16.50;;
66830;SDS011;53739;44.224;22.528;2023-07-16T18:09:50;31.77;;;17.25;;
66830;SDS011;53739;44.224;22.528;2023-07-16T18:12:18;16.38;;;12.25;;
66830;SDS011;53739;44.224;22.528;2023-07-16T18:14:48;20.75;;;12.85;;
66830;SDS011;53739;44.224;22.528;2023-07-16T18:17:16;21.73;;;11.70;;
66830;SDS011;53739;44.224;22.528;2023-07-16T18:19:42;18.63;;;11.80;;
66830;SDS011;53739;44.224;22.528;2023-07-16T18:25:12;16.50;;;11.98;;
66830;SDS011;53739;44.224;22.528;2023-07-16T18:27:39;14.68;;;11.57;;
66830;SDS011;53739;44.224;22.528;2023-07-16T18:30:05;16.35;;;11.88;;
66830;SDS011;53739;44.224;22.528;2023-07-16T18:32:32;13.85;;;11.95;;
66830;SDS011;53739;44.224;22.528;2023-07-16T18:34:58;15.73;;;12.23;;
66830;SDS011;53739;44.224;22.528;2023-07-16T18:37:24;21.40;;;15.52;;
66830;SDS011;53739;44.224;22.528;2023-07-16T18:39:51;20.58;;;14.27;;
66830;SDS011;53739;44.224;22.528;2023-07-16T18:42:21;20.27;;;15.25;;
66830;SDS011;53739;44.224;22.528;2023-07-16T18:44:53;22.35;;;14.65;;
66830;SDS011;53739;44.224;22.528;2023-07-16T23:24:47;19.27;;;15.25;;
